createdAt,value
2017-03-13T00:00:19.806Z,957.83
2017-03-13T00:01:19.788Z,957.82
2017-03-13T00:02:19.769Z,957.84
2017-03-13T00:03:19.751Z,957.83
2017-03-13T00:04:19.734Z,957.86
2017-03-13T00:05:19.714Z,957.87
2017-03-13T00:06:19.701Z,957.89
2017-03-13T00:07:19.679Z,957.91
2017-03-13T00:08:19.660Z,957.92
2017-03-13T00:09:19.643Z,957.89
2017-03-13T00:10:19.624Z,957.89
2017-03-13T00:11:19.606Z,957.88
2017-03-13T00:12:19.587Z,957.87
2017-03-13T00:13:19.569Z,957.83
2017-03-13T00:14:19.549Z,957.88
2017-03-13T00:15:19.532Z,957.9
2017-03-13T00:16:19.515Z,957.86
2017-03-13T00:17:19.496Z,957.88
2017-03-13T00:18:19.477Z,957.87
2017-03-13T00:19:19.460Z,957.86
2017-03-13T00:20:19.442Z,957.83
2017-03-13T00:21:19.422Z,957.82
2017-03-13T00:22:19.406Z,957.87
2017-03-13T00:23:19.389Z,957.8
2017-03-13T00:24:19.369Z,957.8
2017-03-13T00:25:19.349Z,957.79
2017-03-13T00:26:19.332Z,957.76
2017-03-13T00:27:19.314Z,957.76
2017-03-13T00:28:19.295Z,957.8
2017-03-13T00:29:19.277Z,957.79
2017-03-13T00:30:19.259Z,957.79
2017-03-13T00:31:19.239Z,957.79
2017-03-13T00:32:19.222Z,957.74
2017-03-13T00:33:19.205Z,957.8
2017-03-13T00:34:19.185Z,957.81
2017-03-13T00:35:19.166Z,957.81
2017-03-13T00:36:19.183Z,957.77
2017-03-13T00:37:19.133Z,957.78
2017-03-13T00:38:19.112Z,957.71
2017-03-13T00:39:19.093Z,957.7
2017-03-13T00:40:19.074Z,957.68
2017-03-13T00:41:19.057Z,957.69
2017-03-13T00:42:19.037Z,957.7
2017-03-13T00:43:19.021Z,957.7
2017-03-13T00:44:19.001Z,957.74
2017-03-13T00:45:18.983Z,957.75
2017-03-13T00:46:18.963Z,957.73
2017-03-13T00:47:18.945Z,957.72
2017-03-13T00:48:18.928Z,957.78
2017-03-13T00:49:18.909Z,957.79
2017-03-13T00:50:18.890Z,957.77
2017-03-13T00:51:18.871Z,957.71
2017-03-13T00:52:18.853Z,957.72
2017-03-13T00:53:18.835Z,957.77
2017-03-13T00:54:18.818Z,957.77
2017-03-13T00:55:18.797Z,957.81
2017-03-13T00:56:18.781Z,957.83
2017-03-13T00:57:18.762Z,957.84
2017-03-13T00:58:18.742Z,957.79
2017-03-13T00:59:18.725Z,957.84
2017-03-13T01:00:18.707Z,957.83
2017-03-13T01:01:18.688Z,957.84
2017-03-13T01:02:18.669Z,957.77
2017-03-13T01:03:18.651Z,957.73
2017-03-13T01:04:18.632Z,957.8
2017-03-13T01:05:18.614Z,957.77
2017-03-13T01:06:18.596Z,957.78
2017-03-13T01:07:18.577Z,957.84
2017-03-13T01:08:18.558Z,957.85
2017-03-13T01:09:18.540Z,957.86
2017-03-13T01:10:18.522Z,957.91
2017-03-13T01:11:18.504Z,957.88
2017-03-13T01:12:18.485Z,957.95
2017-03-13T01:13:18.467Z,957.97
2017-03-13T01:14:18.449Z,957.95
2017-03-13T01:15:18.428Z,958.01
2017-03-13T01:16:18.410Z,958.01
2017-03-13T01:17:18.393Z,958
2017-03-13T01:18:18.375Z,957.97
2017-03-13T01:19:18.355Z,958.02
2017-03-13T01:20:18.337Z,958.02
2017-03-13T01:21:18.320Z,958.05
2017-03-13T01:22:18.301Z,958.06
2017-03-13T01:23:18.283Z,958.05
2017-03-13T01:24:18.263Z,958.1
2017-03-13T01:25:18.244Z,958.08
2017-03-13T01:26:18.226Z,958.06
2017-03-13T01:27:18.209Z,958.13
2017-03-13T01:28:18.189Z,958.12
2017-03-13T01:29:18.171Z,958.13
2017-03-13T01:30:18.153Z,958.16
2017-03-13T01:31:18.137Z,958.07
2017-03-13T01:32:18.117Z,958.14
2017-03-13T01:33:18.098Z,958.17
2017-03-13T01:34:18.079Z,958.17
2017-03-13T01:35:18.061Z,958.2
2017-03-13T01:36:18.043Z,958.13
2017-03-13T01:37:18.023Z,958.12
2017-03-13T01:38:18.005Z,958.19
2017-03-13T01:39:17.986Z,958.17
2017-03-13T01:40:17.969Z,958.16
2017-03-13T01:41:17.950Z,958.16
2017-03-13T01:42:17.933Z,958.17
2017-03-13T01:43:17.914Z,958.2
2017-03-13T01:44:17.895Z,958.2
2017-03-13T01:45:17.877Z,958.23
2017-03-13T01:46:17.859Z,958.29
2017-03-13T01:47:17.840Z,958.27
2017-03-13T01:48:17.822Z,958.31
2017-03-13T01:49:17.803Z,958.29
2017-03-13T01:50:17.785Z,958.28
2017-03-13T01:51:17.767Z,958.35
2017-03-13T01:52:17.748Z,958.34
2017-03-13T01:53:17.730Z,958.32
2017-03-13T01:54:17.710Z,958.34
2017-03-13T01:55:17.692Z,958.32
2017-03-13T01:56:17.678Z,958.38
2017-03-13T01:57:17.658Z,958.35
2017-03-13T01:58:17.640Z,958.36
2017-03-13T01:59:17.620Z,958.35
2017-03-13T02:00:17.600Z,958.37
2017-03-13T02:01:17.583Z,958.35
2017-03-13T02:02:17.565Z,958.32
2017-03-13T02:03:17.546Z,958.31
2017-03-13T02:04:17.526Z,958.3
2017-03-13T02:05:17.509Z,958.31
2017-03-13T02:06:17.494Z,958.3
2017-03-13T02:07:17.471Z,958.34
2017-03-13T02:08:17.454Z,958.31
2017-03-13T02:09:17.440Z,958.3
2017-03-13T02:10:17.417Z,958.27
2017-03-13T02:11:17.397Z,958.34
2017-03-13T02:12:17.380Z,958.35
2017-03-13T02:13:17.362Z,958.31
2017-03-13T02:14:17.342Z,958.33
2017-03-13T02:15:17.324Z,958.35
2017-03-13T02:16:17.306Z,958.32
2017-03-13T02:17:17.286Z,958.33
2017-03-13T02:18:17.267Z,958.33
2017-03-13T02:19:17.250Z,958.39
2017-03-13T02:20:17.233Z,958.35
2017-03-13T02:21:17.212Z,958.37
2017-03-13T02:22:17.194Z,958.35
2017-03-13T02:23:17.174Z,958.33
2017-03-13T02:24:17.157Z,958.32
2017-03-13T02:25:17.137Z,958.3
2017-03-13T02:26:17.119Z,958.37
2017-03-13T02:27:17.102Z,958.34
2017-03-13T02:28:17.083Z,958.34
2017-03-13T02:29:17.063Z,958.35
2017-03-13T02:30:17.045Z,958.36
2017-03-13T02:31:17.028Z,958.36
2017-03-13T02:32:17.009Z,958.32
2017-03-13T02:33:16.990Z,958.34
2017-03-13T02:34:16.971Z,958.32
2017-03-13T02:35:16.954Z,958.27
2017-03-13T02:36:16.934Z,958.35
2017-03-13T02:37:16.916Z,958.3
2017-03-13T02:38:16.897Z,958.28
2017-03-13T02:39:16.879Z,958.25
2017-03-13T02:40:16.861Z,958.29
2017-03-13T02:41:16.841Z,958.28
2017-03-13T02:42:16.824Z,958.26
2017-03-13T02:43:16.805Z,958.25
2017-03-13T02:44:16.786Z,958.28
2017-03-13T02:45:16.767Z,958.21
2017-03-13T02:46:16.749Z,958.3
2017-03-13T02:47:16.729Z,958.28
2017-03-13T02:48:16.710Z,958.3
2017-03-13T02:49:16.693Z,958.27
2017-03-13T02:50:16.674Z,958.21
2017-03-13T02:51:16.656Z,958.22
2017-03-13T02:52:16.638Z,958.27
2017-03-13T02:53:16.620Z,958.28
2017-03-13T02:54:16.601Z,958.26
2017-03-13T02:55:16.582Z,958.25
2017-03-13T02:56:16.563Z,958.28
2017-03-13T02:57:16.546Z,958.28
2017-03-13T02:58:16.527Z,958.27
2017-03-13T02:59:16.508Z,958.26
2017-03-13T03:00:16.489Z,958.28
2017-03-13T03:01:16.471Z,958.31
2017-03-13T03:02:16.453Z,958.33
2017-03-13T03:03:16.435Z,958.35
2017-03-13T03:04:16.417Z,958.33
2017-03-13T03:05:16.397Z,958.34
2017-03-13T03:06:16.379Z,958.35
2017-03-13T03:07:16.360Z,958.37
2017-03-13T03:08:16.342Z,958.35
2017-03-13T03:09:16.323Z,958.43
2017-03-13T03:10:16.304Z,958.44
2017-03-13T03:11:16.287Z,958.43
2017-03-13T03:12:16.266Z,958.4
2017-03-13T03:13:16.248Z,958.43
2017-03-13T03:14:16.231Z,958.46
2017-03-13T03:15:16.212Z,958.46
2017-03-13T03:16:16.193Z,958.49
2017-03-13T03:17:16.174Z,958.42
2017-03-13T03:18:16.156Z,958.48
2017-03-13T03:19:16.139Z,958.46
2017-03-13T03:20:16.119Z,958.5
2017-03-13T03:21:16.103Z,958.5
2017-03-13T03:22:16.081Z,958.53
2017-03-13T03:23:16.069Z,958.57
2017-03-13T03:24:16.045Z,958.6
2017-03-13T03:25:16.028Z,958.55
2017-03-13T03:26:16.008Z,958.63
2017-03-13T03:27:15.992Z,958.61
2017-03-13T03:28:15.971Z,958.61
2017-03-13T03:29:15.952Z,958.6
2017-03-13T03:30:15.934Z,958.61
2017-03-13T03:31:15.915Z,958.64
2017-03-13T03:32:15.898Z,958.62
2017-03-13T03:33:15.881Z,958.66
2017-03-13T03:34:15.861Z,958.65
2017-03-13T03:35:15.842Z,958.69
2017-03-13T03:36:15.824Z,958.69
2017-03-13T03:37:15.804Z,958.72
2017-03-13T03:38:15.787Z,958.71
2017-03-13T03:39:15.770Z,958.68
2017-03-13T03:40:15.749Z,958.69
2017-03-13T03:41:15.732Z,958.7
2017-03-13T03:42:15.712Z,958.74
2017-03-13T03:43:15.694Z,958.71
2017-03-13T03:44:15.676Z,958.72
2017-03-13T03:45:15.655Z,958.72
2017-03-13T03:46:15.639Z,958.72
2017-03-13T03:47:15.620Z,958.7
2017-03-13T03:48:15.602Z,958.72
2017-03-13T03:49:15.581Z,958.71
2017-03-13T03:50:15.564Z,958.71
2017-03-13T03:51:15.547Z,958.75
2017-03-13T03:52:15.527Z,958.81
2017-03-13T03:53:15.509Z,958.76
2017-03-13T03:54:15.489Z,958.76
2017-03-13T03:55:15.472Z,958.7
2017-03-13T03:56:15.457Z,958.75
2017-03-13T03:57:15.434Z,958.68
2017-03-13T03:58:15.416Z,958.73
2017-03-13T03:59:15.398Z,958.74
2017-03-13T04:00:15.378Z,958.71
2017-03-13T04:01:15.390Z,958.71
2017-03-13T04:02:15.342Z,958.65
2017-03-13T04:03:15.323Z,958.63
2017-03-13T04:04:15.304Z,958.62
2017-03-13T04:05:15.288Z,958.62
2017-03-13T04:06:15.268Z,958.63
2017-03-13T04:07:15.247Z,958.64
2017-03-13T04:08:15.231Z,958.68
2017-03-13T04:09:15.211Z,958.65
2017-03-13T04:10:15.194Z,958.73
2017-03-13T04:11:15.176Z,958.72
2017-03-13T04:12:15.156Z,958.7
2017-03-13T04:13:15.139Z,958.74
2017-03-13T04:14:15.118Z,958.74
2017-03-13T04:15:15.100Z,958.74
2017-03-13T04:16:15.082Z,958.76
2017-03-13T04:17:15.063Z,958.74
2017-03-13T04:18:15.043Z,958.75
2017-03-13T04:19:15.026Z,958.76
2017-03-13T04:20:15.006Z,958.73
2017-03-13T04:21:14.989Z,958.76
2017-03-13T04:22:14.970Z,958.73
2017-03-13T04:23:14.953Z,958.78
2017-03-13T04:24:14.934Z,958.73
2017-03-13T04:25:14.914Z,958.75
2017-03-13T04:26:14.895Z,958.78
2017-03-13T04:27:14.877Z,958.77
2017-03-13T04:28:14.859Z,958.79
2017-03-13T04:29:14.840Z,958.75
2017-03-13T04:30:14.822Z,958.73
2017-03-13T04:31:14.803Z,958.76
2017-03-13T04:32:14.783Z,958.75
2017-03-13T04:33:14.766Z,958.68
2017-03-13T04:34:14.748Z,958.74
2017-03-13T04:35:14.729Z,958.75
2017-03-13T04:36:14.709Z,958.74
2017-03-13T04:37:14.691Z,958.76
2017-03-13T04:38:14.673Z,958.7
2017-03-13T04:39:14.654Z,958.78
2017-03-13T04:40:14.636Z,958.77
2017-03-13T04:41:14.617Z,958.8
2017-03-13T04:42:14.599Z,958.81
2017-03-13T04:43:14.580Z,958.82
2017-03-13T04:44:14.559Z,958.92
2017-03-13T04:45:14.543Z,958.96
2017-03-13T04:46:14.526Z,958.96
2017-03-13T04:47:14.505Z,958.96
2017-03-13T04:48:14.487Z,959
2017-03-13T04:49:14.469Z,959.06
2017-03-13T04:50:14.451Z,959.01
2017-03-13T04:51:14.430Z,959.11
2017-03-13T04:52:14.416Z,959.09
2017-03-13T04:53:14.394Z,959.07
2017-03-13T04:54:14.377Z,959.05
2017-03-13T04:55:14.357Z,959.09
2017-03-13T04:56:14.340Z,959.11
2017-03-13T04:57:14.324Z,959.07
2017-03-13T04:58:14.301Z,959.11
2017-03-13T04:59:14.284Z,959.1
2017-03-13T05:00:14.265Z,959.15
2017-03-13T05:01:14.245Z,959.09
2017-03-13T05:02:14.228Z,959.1
2017-03-13T05:03:14.209Z,959.05
2017-03-13T05:04:14.190Z,959.06
2017-03-13T05:05:14.171Z,959.03
2017-03-13T05:06:14.154Z,958.99
2017-03-13T05:07:14.136Z,959.06
2017-03-13T05:08:14.117Z,959.1
2017-03-13T05:09:14.098Z,959.05
2017-03-13T05:10:14.080Z,959.11
2017-03-13T05:11:14.062Z,959.16
2017-03-13T05:12:14.043Z,959.13
2017-03-13T05:13:14.026Z,959.17
2017-03-13T05:14:14.006Z,959.15
2017-03-13T05:15:13.986Z,959.16
2017-03-13T05:16:13.969Z,959.15
2017-03-13T05:17:13.952Z,959.15
2017-03-13T05:18:13.931Z,959.19
2017-03-13T05:19:13.914Z,959.18
2017-03-13T05:20:13.894Z,959.19
2017-03-13T05:21:13.876Z,959.19
2017-03-13T05:22:13.858Z,959.23
2017-03-13T05:23:13.841Z,959.25
2017-03-13T05:24:13.821Z,959.23
2017-03-13T05:25:13.802Z,959.25
2017-03-13T05:26:13.783Z,959.26
2017-03-13T05:27:13.765Z,959.28
2017-03-13T05:28:13.747Z,959.35
2017-03-13T05:29:13.728Z,959.35
2017-03-13T05:30:13.712Z,959.4
2017-03-13T05:31:13.690Z,959.4
2017-03-13T05:32:13.672Z,959.41
2017-03-13T05:33:13.655Z,959.42
2017-03-13T05:34:13.637Z,959.44
2017-03-13T05:35:13.618Z,959.45
2017-03-13T05:36:13.601Z,959.44
2017-03-13T05:37:13.581Z,959.48
2017-03-13T05:38:13.566Z,959.51
2017-03-13T05:39:13.543Z,959.53
2017-03-13T05:40:13.525Z,959.5
2017-03-13T05:41:13.505Z,959.6
2017-03-13T05:42:13.487Z,959.58
2017-03-13T05:43:13.470Z,959.59
2017-03-13T05:44:13.452Z,959.6
2017-03-13T05:45:13.432Z,959.67
2017-03-13T05:46:13.412Z,959.67
2017-03-13T05:47:13.397Z,959.67
2017-03-13T05:48:13.378Z,959.69
2017-03-13T05:49:13.358Z,959.71
2017-03-13T05:50:13.342Z,959.75
2017-03-13T05:51:13.323Z,959.71
2017-03-13T05:52:13.304Z,959.73
2017-03-13T05:53:13.285Z,959.75
2017-03-13T05:54:13.267Z,959.74
2017-03-13T05:55:13.249Z,959.77
2017-03-13T05:56:13.231Z,959.76
2017-03-13T05:57:13.212Z,959.76
2017-03-13T05:58:13.194Z,959.79
2017-03-13T05:59:13.174Z,959.78
2017-03-13T06:00:13.156Z,959.71
2017-03-13T06:01:13.137Z,959.77
2017-03-13T06:02:13.119Z,959.77
2017-03-13T06:03:13.101Z,959.81
2017-03-13T06:04:13.084Z,959.79
2017-03-13T06:05:13.065Z,959.83
2017-03-13T06:06:13.047Z,959.83
2017-03-13T06:07:13.027Z,959.89
2017-03-13T06:08:13.009Z,959.91
2017-03-13T06:09:12.990Z,959.96
2017-03-13T06:10:12.973Z,959.95
2017-03-13T06:11:12.953Z,959.94
2017-03-13T06:12:12.935Z,959.91
2017-03-13T06:13:12.919Z,959.94
2017-03-13T06:14:12.927Z,960.01
2017-03-13T06:15:12.879Z,960
2017-03-13T06:16:12.863Z,960.04
2017-03-13T06:17:12.848Z,960.02
2017-03-13T06:18:12.826Z,960.02
2017-03-13T06:19:12.807Z,960.03
2017-03-13T06:20:12.790Z,960
2017-03-13T06:21:12.772Z,960
2017-03-13T06:22:12.752Z,960.04
2017-03-13T06:23:12.735Z,959.97
2017-03-13T06:24:12.716Z,959.97
2017-03-13T06:25:12.697Z,959.96
2017-03-13T06:26:12.681Z,959.93
2017-03-13T06:27:12.662Z,959.94
2017-03-13T06:28:12.644Z,959.99
2017-03-13T06:29:12.626Z,959.97
2017-03-13T06:30:12.607Z,959.98
2017-03-13T06:31:12.589Z,960.01
2017-03-13T06:32:12.573Z,960.03
2017-03-13T06:33:12.553Z,960.05
2017-03-13T06:34:12.536Z,960.09
2017-03-13T06:35:12.518Z,960.12
2017-03-13T06:36:12.498Z,960.14
2017-03-13T06:37:12.481Z,960.1
2017-03-13T06:38:12.463Z,960.12
2017-03-13T06:39:12.446Z,960.16
2017-03-13T06:40:12.429Z,960.14
2017-03-13T06:41:12.413Z,960.15
2017-03-13T06:42:12.394Z,960.12
2017-03-13T06:43:12.379Z,960.14
2017-03-13T06:44:12.361Z,960.11
2017-03-13T06:45:12.344Z,960.08
2017-03-13T06:46:12.327Z,960.06
2017-03-13T06:47:12.311Z,960.14
2017-03-13T06:48:12.292Z,960.1
2017-03-13T06:49:12.275Z,960.11
2017-03-13T06:50:12.260Z,960.13
2017-03-13T06:51:12.241Z,960.1
2017-03-13T06:52:12.226Z,960.13
2017-03-13T06:53:12.213Z,960.16
2017-03-13T06:54:12.193Z,960.14
2017-03-13T06:55:12.175Z,960.16
2017-03-13T06:56:12.160Z,960.17
2017-03-13T06:57:12.144Z,960.18
2017-03-13T06:58:12.129Z,960.2
2017-03-13T06:59:12.110Z,960.19
2017-03-13T07:00:12.094Z,960.19
2017-03-13T07:01:12.079Z,960.21
2017-03-13T07:02:12.062Z,960.24
2017-03-13T07:03:12.046Z,960.24
2017-03-13T07:04:12.031Z,960.26
2017-03-13T07:05:12.041Z,960.26
2017-03-13T07:06:11.999Z,960.25
2017-03-13T07:07:11.982Z,960.27
2017-03-13T07:08:11.966Z,960.25
2017-03-13T07:09:11.951Z,960.24
2017-03-13T07:10:11.934Z,960.29
2017-03-13T07:11:11.919Z,960.33
2017-03-13T07:12:11.903Z,960.32
2017-03-13T07:13:11.887Z,960.38
2017-03-13T07:14:11.871Z,960.42
2017-03-13T07:15:11.855Z,960.42
2017-03-13T07:16:11.840Z,960.46
2017-03-13T07:17:11.823Z,960.44
2017-03-13T07:18:11.810Z,960.48
2017-03-13T07:19:11.794Z,960.54
2017-03-13T07:20:11.778Z,960.56
2017-03-13T07:21:11.762Z,960.59
2017-03-13T07:22:11.746Z,960.6
2017-03-13T07:23:11.732Z,960.58
2017-03-13T07:24:11.715Z,960.6
2017-03-13T07:25:11.700Z,960.63
2017-03-13T07:26:11.686Z,960.64
2017-03-13T07:27:11.670Z,960.64
2017-03-13T07:28:11.653Z,960.67
2017-03-13T07:29:11.640Z,960.71
2017-03-13T07:30:11.623Z,960.69
2017-03-13T07:31:11.608Z,960.66
2017-03-13T07:32:11.594Z,960.73
2017-03-13T07:33:11.578Z,960.69
2017-03-13T07:34:11.562Z,960.69
2017-03-13T07:35:11.546Z,960.68
2017-03-13T07:36:11.531Z,960.71
2017-03-13T07:37:11.517Z,960.73
2017-03-13T07:38:11.502Z,960.69
2017-03-13T07:39:11.486Z,960.65
2017-03-13T07:40:11.470Z,960.65
2017-03-13T07:41:11.459Z,960.6
2017-03-13T07:42:11.441Z,960.64
2017-03-13T07:43:11.427Z,960.63
2017-03-13T07:44:11.410Z,960.57
2017-03-13T07:45:11.394Z,960.55
2017-03-13T07:46:11.379Z,960.57
2017-03-13T07:47:11.364Z,960.5
2017-03-13T07:48:11.350Z,960.53
2017-03-13T07:49:11.335Z,960.59
2017-03-13T07:50:11.319Z,960.52
2017-03-13T07:51:11.304Z,960.62
2017-03-13T07:52:11.290Z,960.62
2017-03-13T07:53:11.274Z,960.65
2017-03-13T07:54:11.258Z,960.73
2017-03-13T07:55:11.243Z,960.68
2017-03-13T07:56:11.228Z,960.68
2017-03-13T07:57:11.212Z,960.73
2017-03-13T07:58:11.197Z,960.7
2017-03-13T07:59:11.183Z,960.72
2017-03-13T08:00:11.168Z,960.71
2017-03-13T08:01:11.150Z,960.71
2017-03-13T08:02:11.137Z,960.72
2017-03-13T08:03:11.122Z,960.78
2017-03-13T08:04:11.106Z,960.72
2017-03-13T08:05:11.091Z,960.7
2017-03-13T08:06:11.077Z,960.69
2017-03-13T08:07:11.062Z,960.75
2017-03-13T08:08:11.045Z,960.77
2017-03-13T08:09:11.030Z,960.7
2017-03-13T08:10:11.016Z,960.79
2017-03-13T08:11:11.001Z,960.75
2017-03-13T08:12:10.989Z,960.8
2017-03-13T08:13:10.971Z,960.75
2017-03-13T08:14:10.956Z,960.78
2017-03-13T08:15:10.942Z,960.78
2017-03-13T08:16:10.927Z,960.78
2017-03-13T08:17:10.912Z,960.83
2017-03-13T08:18:10.898Z,960.78
2017-03-13T08:19:10.882Z,960.77
2017-03-13T08:20:10.866Z,960.78
2017-03-13T08:21:10.852Z,960.83
2017-03-13T08:22:10.839Z,960.86
2017-03-13T08:23:10.823Z,960.83
2017-03-13T08:24:10.809Z,960.87
2017-03-13T08:25:10.794Z,960.84
2017-03-13T08:26:10.779Z,960.91
2017-03-13T08:27:10.765Z,960.93
2017-03-13T08:28:10.751Z,960.97
2017-03-13T08:29:10.736Z,960.99
2017-03-13T08:30:10.720Z,960.96
2017-03-13T08:31:10.705Z,961.04
2017-03-13T08:32:10.694Z,961.01
2017-03-13T08:33:10.679Z,961.05
2017-03-13T08:34:10.663Z,961.02
2017-03-13T08:35:10.650Z,961.04
2017-03-13T08:36:10.636Z,961
2017-03-13T08:37:10.622Z,961
2017-03-13T08:38:10.607Z,960.98
2017-03-13T08:39:10.594Z,960.98
2017-03-13T08:40:10.579Z,960.96
2017-03-13T08:41:10.565Z,961
2017-03-13T08:42:10.554Z,960.97
2017-03-13T08:43:10.539Z,961.01
2017-03-13T08:44:10.526Z,960.95
2017-03-13T08:45:10.512Z,960.96
2017-03-13T08:46:10.496Z,960.97
2017-03-13T08:47:10.483Z,961.01
2017-03-13T08:48:10.468Z,961.03
2017-03-13T08:49:10.455Z,961
2017-03-13T08:50:10.440Z,961.05
2017-03-13T08:51:10.430Z,961.09
2017-03-13T08:52:10.413Z,961.03
2017-03-13T08:53:10.401Z,961.08
2017-03-13T08:54:10.387Z,961.02
2017-03-13T08:55:10.402Z,961.09
2017-03-13T08:56:10.360Z,961.04
2017-03-13T08:57:10.346Z,961.03
2017-03-13T08:58:10.334Z,961.02
2017-03-13T08:59:10.319Z,961
2017-03-13T09:00:10.307Z,961.05
2017-03-13T09:01:10.292Z,961.05
2017-03-13T09:02:10.280Z,961.08
2017-03-13T09:03:10.266Z,961.04
2017-03-13T09:04:10.251Z,961.07
2017-03-13T09:05:10.239Z,961.07
2017-03-13T09:06:10.227Z,961.07
2017-03-13T09:07:10.212Z,961.1
2017-03-13T09:08:10.206Z,961.12
2017-03-13T09:09:10.186Z,961.13
2017-03-13T09:10:10.171Z,961.17
2017-03-13T09:11:10.161Z,961.21
2017-03-13T09:12:10.146Z,961.22
2017-03-13T09:13:10.133Z,961.23
2017-03-13T09:14:10.120Z,961.26
2017-03-13T09:15:10.106Z,961.21
2017-03-13T09:16:10.093Z,961.21
2017-03-13T09:17:10.080Z,961.23
2017-03-13T09:18:10.066Z,961.19
2017-03-13T09:19:10.053Z,961.22
2017-03-13T09:20:10.041Z,961.18
2017-03-13T09:21:10.029Z,961.24
2017-03-13T09:22:10.014Z,961.24
2017-03-13T09:23:10.002Z,961.26
2017-03-13T09:24:09.989Z,961.29
2017-03-13T09:25:09.973Z,961.26
2017-03-13T09:26:09.962Z,961.19
2017-03-13T09:27:09.949Z,961.18
2017-03-13T09:28:09.937Z,961.08
2017-03-13T09:29:09.923Z,961.09
2017-03-13T09:30:09.909Z,961.13
2017-03-13T09:31:09.898Z,961.11
2017-03-13T09:32:09.885Z,961.14
2017-03-13T09:33:09.872Z,961.15
2017-03-13T09:34:09.859Z,961.13
2017-03-13T09:35:09.847Z,961.16
2017-03-13T09:36:09.834Z,961.19
2017-03-13T09:37:09.822Z,961.25
2017-03-13T09:38:09.811Z,961.22
2017-03-13T09:39:09.797Z,961.25
2017-03-13T09:40:09.784Z,961.24
2017-03-13T09:41:09.772Z,961.22
2017-03-13T09:42:09.759Z,961.2
2017-03-13T09:43:09.747Z,961.21
2017-03-13T09:44:09.734Z,961.17
2017-03-13T09:45:09.722Z,961.14
2017-03-13T09:46:09.711Z,961.18
2017-03-13T09:47:09.697Z,961.15
2017-03-13T09:48:09.685Z,961.11
2017-03-13T09:49:09.673Z,961.12
2017-03-13T09:50:09.662Z,961.08
2017-03-13T09:51:09.650Z,961.14
2017-03-13T09:52:09.638Z,961.09
2017-03-13T09:53:09.625Z,961.08
2017-03-13T09:54:09.614Z,961.09
2017-03-13T09:55:09.601Z,961.06
2017-03-13T09:56:09.589Z,961.09
2017-03-13T09:57:09.578Z,961.05
2017-03-13T09:58:09.565Z,961.04
2017-03-13T09:59:09.554Z,961.1
2017-03-13T10:00:09.542Z,961.07
2017-03-13T10:01:09.529Z,961.12
2017-03-13T10:02:09.519Z,961.14
2017-03-13T10:03:09.507Z,961.19
2017-03-13T10:04:09.494Z,961.2
2017-03-13T10:05:09.481Z,961.19
2017-03-13T10:06:09.471Z,961.19
2017-03-13T10:07:09.460Z,961.24
2017-03-13T10:08:09.449Z,961.26
2017-03-13T10:09:09.437Z,961.25
2017-03-13T10:10:09.425Z,961.28
2017-03-13T10:11:09.415Z,961.33
2017-03-13T10:12:09.403Z,961.32
2017-03-13T10:13:09.392Z,961.32
2017-03-13T10:14:09.380Z,961.34
2017-03-13T10:15:09.369Z,961.37
2017-03-13T10:16:09.357Z,961.37
2017-03-13T10:17:09.348Z,961.41
2017-03-13T10:18:09.335Z,961.39
2017-03-13T10:19:09.325Z,961.35
2017-03-13T10:20:09.311Z,961.44
2017-03-13T10:21:09.301Z,961.37
2017-03-13T10:22:09.289Z,961.37
2017-03-13T10:23:09.278Z,961.43
2017-03-13T10:24:09.268Z,961.41
2017-03-13T10:25:09.258Z,961.43
2017-03-13T10:26:09.246Z,961.42
2017-03-13T10:27:09.234Z,961.49
2017-03-13T10:28:09.222Z,961.48
2017-03-13T10:29:09.213Z,961.55
2017-03-13T10:30:09.201Z,961.49
2017-03-13T10:31:09.189Z,961.48
2017-03-13T10:32:09.179Z,961.51
2017-03-13T10:33:09.167Z,961.5
2017-03-13T10:34:09.155Z,961.5
2017-03-13T10:35:09.144Z,961.5
2017-03-13T10:36:09.132Z,961.49
2017-03-13T10:37:09.122Z,961.52
2017-03-13T10:38:09.110Z,961.52
2017-03-13T10:39:09.098Z,961.57
2017-03-13T10:40:09.088Z,961.59
2017-03-13T10:41:09.078Z,961.61
2017-03-13T10:42:09.066Z,961.54
2017-03-13T10:43:09.055Z,961.55
2017-03-13T10:44:09.044Z,961.52
2017-03-13T10:45:09.032Z,961.57
2017-03-13T10:46:09.022Z,961.58
2017-03-13T10:47:09.010Z,961.59
2017-03-13T10:48:08.999Z,961.55
2017-03-13T10:49:08.989Z,961.59
2017-03-13T10:50:08.978Z,961.56
2017-03-13T10:51:08.966Z,961.58
2017-03-13T10:52:08.958Z,961.55
2017-03-13T10:53:08.944Z,961.6
2017-03-13T10:54:08.934Z,961.62
2017-03-13T10:55:08.924Z,961.63
2017-03-13T10:56:08.913Z,961.65
2017-03-13T10:57:08.901Z,961.65
2017-03-13T10:58:08.891Z,961.59
2017-03-13T10:59:08.882Z,961.61
2017-03-13T11:00:08.870Z,961.54
2017-03-13T11:01:08.859Z,961.57
2017-03-13T11:02:08.849Z,961.52
2017-03-13T11:03:08.839Z,961.5
2017-03-13T11:04:08.827Z,961.48
2017-03-13T11:05:08.817Z,961.49
2017-03-13T11:06:08.808Z,961.49
2017-03-13T11:07:08.795Z,961.48
2017-03-13T11:08:08.786Z,961.49
2017-03-13T11:09:08.776Z,961.5
2017-03-13T11:10:08.763Z,961.55
2017-03-13T11:11:08.754Z,961.55
2017-03-13T11:12:08.744Z,961.56
2017-03-13T11:13:08.734Z,961.56
2017-03-13T11:14:08.723Z,961.51
2017-03-13T11:15:08.712Z,961.49
2017-03-13T11:16:08.702Z,961.55
2017-03-13T11:17:08.691Z,961.52
2017-03-13T11:18:08.679Z,961.53
2017-03-13T11:19:08.672Z,961.51
2017-03-13T11:20:08.663Z,961.5
2017-03-13T11:21:08.650Z,961.49
2017-03-13T11:22:08.640Z,961.47
2017-03-13T11:23:08.635Z,961.51
2017-03-13T11:24:08.618Z,961.43
2017-03-13T11:25:08.608Z,961.46
2017-03-13T11:26:08.599Z,961.43
2017-03-13T11:27:08.589Z,961.46
2017-03-13T11:28:08.578Z,961.41
2017-03-13T11:29:08.567Z,961.38
2017-03-13T11:30:08.557Z,961.37
2017-03-13T11:31:08.549Z,961.42
2017-03-13T11:32:08.536Z,961.37
2017-03-13T11:33:08.525Z,961.42
2017-03-13T11:34:08.515Z,961.37
2017-03-13T11:35:08.505Z,961.28
2017-03-13T11:36:08.493Z,961.26
2017-03-13T11:37:08.483Z,961.27
2017-03-13T11:38:08.472Z,961.22
2017-03-13T11:39:08.463Z,961.16
2017-03-13T11:40:08.453Z,961.19
2017-03-13T11:41:08.440Z,961.18
2017-03-13T11:42:08.432Z,961.16
2017-03-13T11:43:08.422Z,961.21
2017-03-13T11:44:08.411Z,961.21
2017-03-13T11:45:08.401Z,961.22
2017-03-13T11:46:08.389Z,961.21
2017-03-13T11:47:08.378Z,961.22
2017-03-13T11:48:08.371Z,961.23
2017-03-13T11:49:08.359Z,961.23
2017-03-13T11:50:08.349Z,961.29
2017-03-13T11:51:08.339Z,961.27
2017-03-13T11:52:08.328Z,961.29
2017-03-13T11:53:08.319Z,961.26
2017-03-13T11:54:08.309Z,961.25
2017-03-13T11:55:08.297Z,961.25
2017-03-13T11:56:08.285Z,961.26
2017-03-13T11:57:08.278Z,961.27
2017-03-13T11:58:08.270Z,961.3
2017-03-13T11:59:08.255Z,961.28
2017-03-13T12:00:08.246Z,961.25
2017-03-13T12:01:08.239Z,961.32
2017-03-13T12:02:08.225Z,961.34
2017-03-13T12:03:08.217Z,961.34
2017-03-13T12:04:08.206Z,961.36
2017-03-13T12:05:08.196Z,961.35
2017-03-13T12:06:08.186Z,961.31
2017-03-13T12:07:08.176Z,961.34
2017-03-13T12:08:08.301Z,961.31
2017-03-13T12:09:08.155Z,961.27
2017-03-13T12:10:08.145Z,961.3
2017-03-13T12:11:08.135Z,961.25
2017-03-13T12:12:08.125Z,961.31
2017-03-13T12:13:08.114Z,961.29
2017-03-13T12:14:08.104Z,961.23
2017-03-13T12:15:08.095Z,961.19
2017-03-13T12:16:08.084Z,961.26
2017-03-13T12:17:08.074Z,961.24
2017-03-13T12:18:08.063Z,961.17
2017-03-13T12:19:08.055Z,961.18
2017-03-13T12:20:08.046Z,961.18
2017-03-13T12:21:08.038Z,961.17
2017-03-13T12:22:08.023Z,961.16
2017-03-13T12:23:08.067Z,961.21
2017-03-13T12:24:08.003Z,961.24
2017-03-13T12:25:07.993Z,961.22
2017-03-13T12:26:07.983Z,961.16
2017-03-13T12:27:07.972Z,961.19
2017-03-13T12:28:07.962Z,961.18
2017-03-13T12:29:07.953Z,961.19
2017-03-13T12:30:07.944Z,961.18
2017-03-13T12:31:07.932Z,961.19